Hauptseite
METAR-TAF:

METAR-TAF

Flughäfen :

Aigen im Ennstal, Österreich

Breite: 47-32N, Länge: 014-08E, Höhe: 638 m

METAR: fehlend

Zeit: 00:59 (23:59 UTC)

Prognose

Neuester Wetterbericht von vor 15 Stunden und 44 Minuten, um 08:15 UTC
Gültige Prognose vom 24 um 09 UTC bis 24 um 18 UTC
Wind 3 kt aus unterschiedlichen Richtungen
Sichtweite 10 km oder mehr
Durchbrochene Bewölkung in der Höhe von 30000 ft
Zeitweise
vom 24 um 11 UTC bis 24 um 17 UTC
Wind 8 kt aus Nordost
Leicht bewölkt in der Höhe von 6000 ft
Durchbrochene Bewölkung in der Höhe von 20000 ft

TAF: LOXA 240815Z 2409/2418 VRB03KT 9999 BKN300 TEMPO 2411/2417 04008KT FEW060 BKN200

Wetterbeobachtungen und Prognosen von mehr als 4000 Flughäfen (METAR und TAF Bericht).

Die verfügbaren Stationen werden durch gelbe und rote Markierungen auf der Karte dargestellt.

Führen Sie die Maus auf sie, um den Namen der Station zu sehen.

Darauf klicken, um die Beobachtung von Wetterbeobachtungen und Prognosen zu sehen.

Um die Karte zu ändern : klicken Sie auf den grünen Tasten mit einem schwarzen Kreuz Zum Vergrößern, auf den grünen Button mit einem Gedankenstrich zu verkleinern, oder auf die grünen Pfeile für benachbarte Karten.


METAR-TAF: